Lulu Pass Weather Station

This weather station is located at 10020ft near Lulu Pass at the head of Fisher Creek. This data can be used with temperature and precipitation data from the Fisher Creek SNOTEL site. This data can be viewed directly on datagarrison.com

Elevation
10020ft
Jump to table bottom
Date Time Temperature
deg F
RH, % Wind Speed Wind Gust Wind Direction
12/04/22 05:00 10.8 90 4 10 SW - 234
12/04/22 04:00 10.3 90 3 8 W - 278
12/04/22 03:00 10.0 90 5 8 NW - 333
12/04/22 02:00 9.4 90 4 9 W - 281
12/04/22 01:00 9.8 90 5 10 SW - 227
12/04/22 00:00 9.0 90 6 11 SW - 234
12/03/22 23:00 9.7 90 5 10 W - 264
12/03/22 22:00 8.6 90 5 10 SW - 247
12/03/22 21:00 8.4 89 4 8 W - 268
12/03/22 20:00 7.7 89 7 15 SW - 232
12/03/22 19:00 8.3 89 6 14 SW - 243
12/03/22 18:00 8.4 89 6 17 W - 277
12/03/22 17:00 8.2 89 8 17 NW - 299
12/03/22 16:00 8.2 89 8 21 SW - 239
12/03/22 15:00 10.1 90 9 24 W - 253
12/03/22 14:00 12.1 90 10 26 SW - 219
12/03/22 13:00 10.0 89 11 24 SW - 227
12/03/22 12:00 8.6 88 10 26 SW - 234
12/03/22 11:00 6.1 88 6 16 NW - 314
12/03/22 10:00 3.7 88 7 16 W - 284
12/03/22 09:00 3.0 87 6 15 NW - 316
12/03/22 08:00 0.2 87 7 19 NW - 310
12/03/22 07:00 -1.9 86 8 16 NW - 305
12/03/22 06:00 -2.6 86 8 21 NW - 295
12/03/22 05:00 -3.3 86 6 16 W - 250
12/03/22 04:00 -3.0 85 6 18 W - 271
12/03/22 03:00 -3.8 85 7 23 W - 251
12/03/22 02:00 -3.0 85 9 26 SW - 236
12/03/22 01:00 -3.3 85 7 21 SW - 247
12/03/22 00:00 -3.7 85 7 21 SW - 229
12/02/22 23:00 -4.1 85 11 25 SW - 219
12/02/22 22:00 -4.3 85 12 27 SW - 209
12/02/22 21:00 -3.9 85 14 30 SW - 205
12/02/22 20:00 -3.1 86 16 33 SW - 212
12/02/22 19:00 -2.2 86 10 29 SW - 237
12/02/22 18:00 -2.4 86 9 27 SW - 229
12/02/22 17:00 -2.0 86 14 33 SW - 229
12/02/22 16:00 -1.7 86 15 29 SW - 225
12/02/22 15:00 -1.0 86 13 28 SW - 220
12/02/22 14:00 -0.4 86 10 24 SW - 236
12/02/22 13:00 -0.2 86 11 28 W - 254
12/02/22 12:00 -0.8 86 16 31 W - 263
12/02/22 11:00 -2.2 86 16 36 W - 267
12/02/22 10:00 -1.9 86 20 39 W - 278
12/02/22 09:00 -2.7 86 17 33 W - 275
12/02/22 08:00 -1.3 86 16 34 W - 275
12/02/22 07:00 0.0 87 19 27 NW - 303
12/02/22 06:00 0.2 87 23 32 NW - 313
12/02/22 05:00 0.8 87 23 36 NW - 313
12/02/22 04:00 4.0 88 19 28 NW - 300